Time;durP1;ratioP1;P1;durP2;ratioP2;P2;SDS_P1;SDS_P2;PMS_P1;PMS_P2;Temp;Humidity;BMP_temperature;BMP_pressure;BME280_temperature;BME280_humidity;BME280_pressure;Samples;Min_cycle;Max_cycle;Signal;HPM_P1;HPM_P2
2021/05/25 00:02:00;;;;;;;3.45;1.15;;;17.30;74.60;;;;;;4941587;28;95886;-40
2021/05/25 00:04:30;;;;;;;3.92;1.10;;;17.30;74.60;;;;;;4942731;28;95460;-41
2021/05/25 00:07:01;;;;;;;1.30;1.17;;;17.30;74.90;;;;;;4945461;28;96262;-39
2021/05/25 00:09:32;;;;;;;;;;;17.30;74.90;;;;;;4942333;28;95774;-38
2021/05/25 00:12:04;;;;;;;1.52;1.10;;;17.40;74.80;;;;;;4942434;28;95785;-38
2021/05/25 00:14:36;;;;;;;1.50;1.33;;;17.40;74.70;;;;;;4935290;28;103794;-45
2021/05/25 00:17:07;;;;;;;1.98;1.25;;;17.50;74.60;;;;;;4939221;28;96293;-45
2021/05/25 00:19:39;;;;;;;1.15;1.05;;;17.50;74.60;;;;;;4943462;28;100150;-39
2021/05/25 00:22:12;;;;;;;1.52;1.38;;;17.60;74.60;;;;;;4949767;28;95695;-38
2021/05/25 00:24:42;;;;;;;2.08;1.20;;;17.60;74.50;;;;;;4945422;28;95899;-45
2021/05/25 00:27:12;;;;;;;2.60;1.23;;;17.60;74.50;;;;;;4949822;28;96064;-38
2021/05/25 00:29:42;;;;;;;4.88;1.58;;;17.60;74.50;;;;;;4945922;28;95993;-38
2021/05/25 00:32:12;;;;;;;1.70;1.48;;;17.60;74.40;;;;;;4944940;28;95787;-38
2021/05/25 00:34:42;;;;;;;1.17;1.08;;;17.60;74.40;;;;;;4944977;28;95700;-39
2021/05/25 00:37:12;;;;;;;1.20;1.10;;;17.60;74.40;;;;;;4947791;28;97008;-39
2021/05/25 00:39:43;;;;;;;;;;;17.60;74.30;;;;;;4941164;28;96211;-38
2021/05/25 00:42:14;;;;;;;1.30;1.05;;;17.70;74.90;;;;;;4951454;28;95719;-39
2021/05/25 00:44:46;;;;;;;1.45;1.30;;;17.70;74.30;;;;;;4945149;28;95797;-41
2021/05/25 00:47:30;;;;;;;2.88;1.15;;;17.70;74.20;;;;;;4930852;28;96410;-39
2021/05/25 00:50:12;;;;;;;1.35;1.00;;;17.70;74.10;;;;;;4923216;28;96255;-40
2021/05/25 00:52:56;;;;;;;1.30;1.20;;;17.80;74.10;;;;;;4927291;28;96195;-40
2021/05/25 00:55:31;;;;;;;3.22;1.23;;;17.80;73.90;;;;;;4927335;28;96172;-40
2021/05/25 00:58:04;;;;;;;1.25;0.98;;;17.80;73.90;;;;;;4929582;28;97068;-40
2021/05/25 01:00:37;;;;;;;1.08;0.98;;;17.90;73.80;;;;;;4924275;28;97018;-40
2021/05/25 01:03:09;;;;;;;4.05;1.30;;;17.90;73.60;;;;;;4949394;28;95365;-39
2021/05/25 01:05:39;;;;;;;1.40;1.10;;;17.90;74.20;;;;;;4943949;28;97422;-39
2021/05/25 01:08:14;;;;;;;1.88;1.00;;;17.90;73.40;;;;;;4948162;28;96373;-39
2021/05/25 01:10:53;;;;;;;1.02;0.93;;;18.00;73.50;;;;;;4945489;28;97559;-39
2021/05/25 01:13:27;;;;;;;1.70;1.13;;;18.00;73.40;;;;;;4945402;28;95738;-41
2021/05/25 01:15:59;;;;;;;1.30;0.90;;;18.00;73.30;;;;;;4938016;28;95347;-43
2021/05/25 01:18:32;;;;;;;1.80;1.13;;;18.00;73.10;;;;;;4947450;28;96387;-41
2021/05/25 01:21:06;;;;;;;1.15;0.90;;;18.00;73.10;;;;;;4942760;28;95558;-40
2021/05/25 01:23:37;;;;;;;1.27;1.17;;;18.00;72.90;;;;;;4947338;28;96451;-42
2021/05/25 01:26:09;;;;;;;1.40;1.20;;;18.00;72.90;;;;;;4942088;28;95959;-39
2021/05/25 01:28:41;;;;;;;;;;;18.00;72.90;;;;;;4947066;28;96089;-39
2021/05/25 01:31:11;;;;;;;1.05;0.95;;;18.00;72.80;;;;;;4936949;28;96387;-39
2021/05/25 01:33:43;;;;;;;1.10;0.98;;;18.10;72.80;;;;;;4948230;28;97434;-40
2021/05/25 01:36:16;;;;;;;1.42;1.00;;;18.00;72.70;;;;;;4945254;28;95747;-38
2021/05/25 01:38:50;;;;;;;1.02;0.95;;;18.10;72.70;;;;;;4947947;28;96059;-40
2021/05/25 01:41:21;;;;;;;1.65;1.08;;;18.10;72.70;;;;;;4943393;28;96058;-40
2021/05/25 01:43:54;;;;;;;2.42;0.88;;;18.10;72.70;;;;;;4948397;28;95312;-41
2021/05/25 01:46:25;;;;;;;1.60;0.80;;;18.10;72.60;;;;;;4939588;28;95727;-41
2021/05/25 01:48:55;;;;;;;3.60;1.20;;;18.10;72.50;;;;;;4949186;28;96729;-41
2021/05/25 01:51:26;;;;;;;1.95;1.15;;;18.10;72.50;;;;;;4947032;28;96113;-41
2021/05/25 01:53:57;;;;;;;1.30;0.80;;;18.10;72.40;;;;;;4962057;28;95797;-41
2021/05/25 01:56:28;;;;;;;0.93;0.93;;;18.10;72.50;;;;;;4947994;28;95930;-40
2021/05/25 01:58:59;;;;;;;1.38;1.08;;;18.20;72.60;;;;;;4943347;28;96259;-41
2021/05/25 02:01:31;;;;;;;1.00;0.80;;;18.10;72.40;;;;;;4945007;28;97344;-41
2021/05/25 02:04:04;;;;;;;2.05;0.82;;;18.10;72.40;;;;;;4939360;28;96059;-41
2021/05/25 02:06:35;;;;;;;3.33;1.20;;;18.10;72.40;;;;;;4944501;28;95555;-41
2021/05/25 02:09:08;;;;;;;1.40;0.85;;;18.20;72.40;;;;;;4942623;28;96049;-42
2021/05/25 02:11:39;;;;;;;1.02;0.80;;;18.10;72.40;;;;;;4945877;28;97721;-41
2021/05/25 02:14:11;;;;;;;5.05;1.27;;;18.10;72.70;;;;;;4941869;28;96017;-41
2021/05/25 02:16:43;;;;;;;0.80;0.75;;;18.20;72.50;;;;;;4943769;28;97388;-41
2021/05/25 02:19:15;;;;;;;;;;;18.20;72.50;;;;;;4942123;28;96707;-41
2021/05/25 02:21:45;;;;;;;;;;;18.10;72.40;;;;;;4949735;28;95631;-42
2021/05/25 02:24:17;;;;;;;2.58;0.85;;;18.20;72.50;;;;;;4941702;28;95603;-41
2021/05/25 02:26:47;;;;;;;2.13;1.10;;;18.20;72.50;;;;;;4948344;28;96111;-40
2021/05/25 02:29:16;;;;;;;0.80;0.80;;;18.20;72.60;;;;;;4943294;28;96219;-39
2021/05/25 02:31:49;;;;;;;2.03;1.10;;;18.20;72.60;;;;;;4942480;28;96041;-39
2021/05/25 02:34:21;;;;;;;1.08;0.90;;;18.20;72.60;;;;;;4944603;28;97532;-39
2021/05/25 02:36:52;;;;;;;1.55;1.30;;;18.20;72.50;;;;;;4948040;28;95459;-38
2021/05/25 02:39:21;;;;;;;0.98;0.93;;;18.30;72.60;;;;;;4943619;28;96517;-41
2021/05/25 02:41:53;;;;;;;1.00;0.80;;;18.40;72.60;;;;;;4944468;28;95797;-40
2021/05/25 02:44:24;;;;;;;1.20;0.90;;;18.50;72.40;;;;;;4943580;28;96216;-40
2021/05/25 02:46:55;;;;;;;1.00;0.80;;;18.70;71.90;;;;;;4942677;28;96140;-42
2021/05/25 02:49:25;;;;;;;1.97;0.90;;;18.80;71.50;;;;;;4944480;28;97051;-41
2021/05/25 02:51:56;;;;;;;;;;;18.90;71.20;;;;;;4948014;28;95450;-42
2021/05/25 02:54:27;;;;;;;0.80;0.80;;;19.00;71.00;;;;;;4945426;28;97833;-42
2021/05/25 02:56:59;;;;;;;0.55;0.52;;;19.20;70.70;;;;;;4948290;28;95754;-40
2021/05/25 02:59:31;;;;;;;1.52;0.90;;;19.30;70.30;;;;;;4937517;28;97564;-42
2021/05/25 03:02:01;;;;;;;;;;;19.40;70.00;;;;;;4940188;28;96724;-41
2021/05/25 03:04:32;;;;;;;2.38;1.02;;;19.50;69.70;;;;;;4942451;28;95918;-42
2021/05/25 03:07:02;;;;;;;1.60;1.00;;;19.60;70.10;;;;;;4946360;28;95798;-41
2021/05/25 03:09:37;;;;;;;2.38;1.00;;;19.70;70.00;;;;;;4943762;28;96106;-38
2021/05/25 03:12:08;;;;;;;1.10;0.80;;;19.60;69.50;;;;;;4946140;28;96175;-45
2021/05/25 03:14:40;;;;;;;0.93;0.77;;;19.60;69.80;;;;;;4943731;28;95801;-46
2021/05/25 03:17:13;;;;;;;1.85;1.05;;;19.60;69.90;;;;;;4940086;28;95810;-46
2021/05/25 03:19:44;;;;;;;2.08;0.70;;;19.50;70.00;;;;;;4945704;28;96099;-46
2021/05/25 03:22:14;;;;;;;2.03;1.20;;;19.40;70.10;;;;;;4941163;28;103898;-47
2021/05/25 03:24:44;;;;;;;1.63;0.90;;;19.40;70.20;;;;;;4942878;28;95722;-46
2021/05/25 03:27:14;;;;;;;0.88;0.88;;;19.40;70.30;;;;;;4946836;28;96038;-48
2021/05/25 03:29:44;;;;;;;1.20;0.80;;;19.30;70.50;;;;;;4945158;28;97161;-47
2021/05/25 03:32:15;;;;;;;2.10;0.80;;;19.30;70.50;;;;;;4935762;28;95803;-46
2021/05/25 03:34:49;;;;;;;0.70;0.70;;;19.30;70.70;;;;;;4944410;28;95831;-45
2021/05/25 03:37:20;;;;;;;1.58;1.02;;;19.30;70.70;;;;;;4940636;28;95960;-46
2021/05/25 03:39:51;;;;;;;1.00;0.90;;;19.30;70.60;;;;;;4944709;28;97289;-42
2021/05/25 03:42:26;;;;;;;0.73;0.70;;;19.30;70.90;;;;;;4939499;28;96030;-43
2021/05/25 03:44:57;;;;;;;1.02;1.00;;;19.30;70.80;;;;;;4941773;28;95968;-41
2021/05/25 03:47:31;;;;;;;1.00;0.95;;;19.30;71.00;;;;;;4942528;28;95446;-40
2021/05/25 03:50:09;;;;;;;0.68;0.60;;;19.30;70.80;;;;;;4946267;28;96924;-40
2021/05/25 03:52:46;;;;;;;1.00;0.93;;;19.30;70.80;;;;;;4940936;28;96995;-40
2021/05/25 04:00:56;;;;;;;1.77;1.08;;;19.40;70.80;;;;;;4939729;28;96508;-39
2021/05/25 04:03:28;;;;;;;1.83;1.40;;;19.50;71.10;;;;;;4920907;28;95827;-39
2021/05/25 04:05:58;;;;;;;1.02;0.90;;;19.40;71.00;;;;;;4926311;28;95621;-38
2021/05/25 04:08:29;;;;;;;1.35;1.23;;;19.50;71.00;;;;;;4921008;28;95878;-39
2021/05/25 04:11:01;;;;;;;1.83;1.00;;;19.50;71.00;;;;;;4924949;28;96126;-42
2021/05/25 04:13:34;;;;;;;3.25;1.15;;;19.60;71.00;;;;;;4915507;28;96375;-46
2021/05/25 04:16:12;;;;;;;3.88;1.02;;;19.60;71.10;;;;;;4917891;28;95863;-40
2021/05/25 04:18:44;;;;;;;6.65;1.17;;;19.60;71.20;;;;;;4919961;28;96074;-39
2021/05/25 04:21:19;;;;;;;2.30;0.63;;;19.60;71.10;;;;;;4926995;28;95977;-40
2021/05/25 04:23:49;;;;;;;1.92;1.00;;;19.50;71.10;;;;;;4921446;28;95540;-41
2021/05/25 04:26:20;;;;;;;9.10;1.48;;;19.60;71.20;;;;;;4926095;28;95682;-39
2021/05/25 04:28:51;;;;;;;0.98;0.93;;;19.50;71.10;;;;;;4921346;28;96274;-39
2021/05/25 04:31:24;;;;;;;;;;;19.50;71.30;;;;;;4932219;28;96074;-39
2021/05/25 04:33:54;;;;;;;5.25;1.02;;;19.60;71.30;;;;;;4941615;28;97989;-39
2021/05/25 04:36:26;;;;;;;3.75;0.93;;;19.60;71.30;;;;;;4945450;28;95679;-38
2021/05/25 04:38:56;;;;;;;3.40;1.70;;;19.60;71.20;;;;;;4942984;28;95768;-39
2021/05/25 04:41:28;;;;;;;3.28;1.20;;;19.60;71.20;;;;;;4946157;28;96330;-39
2021/05/25 04:43:59;;;;;;;1.25;1.08;;;19.60;71.40;;;;;;4938876;28;95801;-41
2021/05/25 04:46:30;;;;;;;;;;;19.60;71.50;;;;;;4932263;28;95816;-39
2021/05/25 04:49:00;;;;;;;1.45;1.08;;;19.50;71.40;;;;;;4925563;28;96014;-40
2021/05/25 04:51:30;;;;;;;1.77;1.42;;;19.50;71.30;;;;;;4926936;28;96494;-43
2021/05/25 04:54:01;;;;;;;;;;;19.50;71.30;;;;;;4924085;28;97787;-44
2021/05/25 04:56:34;;;;;;;3.45;0.98;;;19.50;71.40;;;;;;4928323;28;95876;-42
2021/05/25 04:59:06;;;;;;;2.40;1.13;;;19.50;71.60;;;;;;4922914;28;95566;-41
2021/05/25 05:01:37;;;;;;;3.08;2.10;;;19.60;71.60;;;;;;4934369;28;97050;-43
2021/05/25 05:04:09;;;;;;;6.20;1.45;;;19.50;71.80;;;;;;4948207;28;97721;-40
2021/05/25 05:06:40;;;;;;;2.88;1.30;;;19.60;72.00;;;;;;4950108;28;95748;-43
2021/05/25 05:09:14;;;;;;;2.20;1.30;;;19.60;71.40;;;;;;4946132;28;95322;-46
2021/05/25 05:11:45;;;;;;;4.20;2.10;;;19.60;71.50;;;;;;4947629;28;97574;-42
2021/05/25 05:14:16;;;;;;;;;;;19.60;71.70;;;;;;4947003;28;95954;-42
2021/05/25 05:16:47;;;;;;;1.90;1.42;;;19.50;71.60;;;;;;4936283;28;95980;-41
2021/05/25 05:19:19;;;;;;;3.50;1.70;;;19.60;71.70;;;;;;4928520;28;96080;-44
2021/05/25 05:21:50;;;;;;;;;;;19.60;71.60;;;;;;4924578;28;105029;-42
2021/05/25 05:24:21;;;;;;;2.28;1.70;;;19.70;71.30;;;;;;4930728;28;96952;-45
2021/05/25 05:26:53;;;;;;;2.97;1.17;;;19.60;71.50;;;;;;4926325;28;95594;-41
2021/05/25 05:29:24;;;;;;;4.65;1.33;;;19.60;71.90;;;;;;4929519;28;95896;-41
2021/05/25 05:31:55;;;;;;;2.55;2.30;;;19.70;72.40;;;;;;4913867;28;96522;-42
2021/05/25 05:34:25;;;;;;;5.03;1.57;;;19.60;72.00;;;;;;4926935;28;95842;-42
2021/05/25 05:36:55;;;;;;;2.75;1.70;;;19.60;71.70;;;;;;4924367;28;95483;-42
2021/05/25 05:39:25;;;;;;;4.25;1.77;;;19.60;71.80;;;;;;4929244;28;96073;-40
2021/05/25 05:41:57;;;;;;;4.40;2.00;;;19.70;71.70;;;;;;4925532;28;97148;-41
2021/05/25 05:44:28;;;;;;;6.45;1.83;;;19.60;71.60;;;;;;4929093;28;95623;-48
2021/05/25 05:46:59;;;;;;;3.90;1.83;;;19.60;71.80;;;;;;4919996;28;95744;-41
2021/05/25 05:49:31;;;;;;;3.47;1.52;;;19.60;71.70;;;;;;4927613;28;96005;-46
2021/05/25 05:52:02;;;;;;;2.83;1.67;;;19.60;71.50;;;;;;4921390;28;96520;-42
2021/05/25 05:54:33;;;;;;;6.97;2.33;;;19.60;71.60;;;;;;4929061;28;95894;-41
2021/05/25 05:57:06;;;;;;;2.65;1.92;;;19.50;71.80;;;;;;4923944;28;95979;-48
2021/05/25 05:59:38;;;;;;;4.38;1.48;;;19.50;71.90;;;;;;4929061;28;95603;-43
2021/05/25 06:02:08;;;;;;;3.60;1.88;;;19.40;72.00;;;;;;4919448;28;98729;-42
2021/05/25 06:04:39;;;;;;;3.42;1.92;;;19.40;71.90;;;;;;4928442;28;96782;-42
2021/05/25 06:07:10;;;;;;;3.90;1.67;;;19.40;72.10;;;;;;4924053;28;95968;-48
2021/05/25 06:09:41;;;;;;;3.28;1.75;;;19.30;72.10;;;;;;4927547;28;95875;-43
2021/05/25 06:12:13;;;;;;;;;;;19.40;72.40;;;;;;4924948;28;95889;-44
2021/05/25 06:14:45;;;;;;;4.60;1.45;;;19.50;72.50;;;;;;4928649;28;95774;-43
2021/05/25 06:17:17;;;;;;;6.13;1.40;;;19.50;72.30;;;;;;4920774;28;95904;-41
2021/05/25 06:19:48;;;;;;;4.75;1.80;;;19.60;72.40;;;;;;4929118;28;95932;-40
2021/05/25 06:22:21;;;;;;;7.28;2.05;;;19.70;72.30;;;;;;4923608;28;98253;-41
2021/05/25 06:24:55;;;;;;;1.45;1.35;;;19.70;72.10;;;;;;4925768;28;97726;-41
2021/05/25 06:27:26;;;;;;;;;;;19.60;72.20;;;;;;4927385;28;95935;-47
2021/05/25 06:29:56;;;;;;;2.65;1.65;;;19.70;72.30;;;;;;4930841;28;95809;-40
2021/05/25 06:32:26;;;;;;;3.20;1.80;;;19.80;72.40;;;;;;4936161;28;95977;-41
2021/05/25 06:34:57;;;;;;;;;;;19.80;72.40;;;;;;4943311;28;95682;-40
2021/05/25 06:37:27;;;;;;;2.17;1.52;;;19.80;72.40;;;;;;4948879;28;95802;-41
2021/05/25 06:39:58;;;;;;;2.80;1.93;;;19.90;72.40;;;;;;4945684;28;96199;-40
2021/05/25 06:42:29;;;;;;;1.52;1.40;;;19.90;72.50;;;;;;4945448;28;96366;-39
2021/05/25 06:45:01;;;;;;;2.08;1.38;;;19.90;72.70;;;;;;4941374;28;96801;-39
2021/05/25 06:47:32;;;;;;;1.45;1.35;;;19.90;72.60;;;;;;4943980;28;95966;-41
2021/05/25 06:50:05;;;;;;;2.22;1.60;;;19.90;72.70;;;;;;4939217;28;96025;-39
2021/05/25 06:52:37;;;;;;;3.53;1.58;;;19.90;72.70;;;;;;4945273;28;96269;-38
2021/05/25 06:55:12;;;;;;;1.55;1.30;;;19.90;72.70;;;;;;4942540;28;96196;-37
2021/05/25 06:57:46;;;;;;;3.33;2.08;;;20.00;73.10;;;;;;4945103;28;95324;-39
2021/05/25 07:00:18;;;;;;;2.78;1.63;;;19.90;71.60;;;;;;4941335;28;98451;-39
2021/05/25 07:02:49;;;;;;;1.85;1.70;;;19.80;72.50;;;;;;4946315;28;97307;-40
2021/05/25 07:05:21;;;;;;;2.55;1.85;;;19.90;72.70;;;;;;4940416;28;97098;-38
2021/05/25 07:07:52;;;;;;;2.13;1.42;;;19.90;72.80;;;;;;4943729;28;95537;-42
2021/05/25 07:10:23;;;;;;;2.22;1.75;;;19.90;72.80;;;;;;4943800;28;97267;-39
2021/05/25 07:12:55;;;;;;;2.05;1.60;;;20.00;72.60;;;;;;4945529;28;96483;-41
2021/05/25 07:15:26;;;;;;;2.63;1.85;;;19.80;71.80;;;;;;4939638;28;95471;-39
2021/05/25 07:17:57;;;;;;;;;;;19.70;72.10;;;;;;4940284;28;96072;-39
2021/05/25 07:20:29;;;;;;;2.28;1.98;;;19.70;72.20;;;;;;4941205;28;95361;-39
2021/05/25 07:23:00;;;;;;;2.67;2.00;;;19.70;72.20;;;;;;4945723;28;96805;-40
2021/05/25 07:25:33;;;;;;;2.45;2.10;;;19.70;72.30;;;;;;4944581;28;96400;-41
2021/05/25 07:28:04;;;;;;;1.77;1.67;;;19.70;72.20;;;;;;4940029;28;95693;-38
2021/05/25 07:30:36;;;;;;;3.90;2.03;;;19.70;72.30;;;;;;4933676;28;95985;-41
2021/05/25 07:33:07;;;;;;;2.35;1.90;;;19.70;72.30;;;;;;4942604;28;96442;-39
2021/05/25 07:35:39;;;;;;;2.63;2.00;;;19.70;72.30;;;;;;4941875;28;96027;-41
2021/05/25 07:38:10;;;;;;;2.55;1.67;;;19.70;72.30;;;;;;4946204;28;96125;-39
2021/05/25 07:40:42;;;;;;;2.00;1.80;;;19.70;72.30;;;;;;4942010;28;96245;-38
2021/05/25 07:43:14;;;;;;;1.92;1.80;;;19.70;72.30;;;;;;4943542;28;96792;-39
2021/05/25 07:45:46;;;;;;;3.70;2.28;;;19.70;72.40;;;;;;4937148;28;97327;-39
2021/05/25 07:48:18;;;;;;;5.10;2.53;;;19.60;72.00;;;;;;4945644;28;95722;-39
2021/05/25 07:50:49;;;;;;;3.80;2.40;;;19.50;72.20;;;;;;4942521;28;95388;-38
2021/05/25 07:53:20;;;;;;;4.18;2.22;;;19.40;72.40;;;;;;4945226;28;97286;-38
2021/05/25 07:55:53;;;;;;;3.75;2.70;;;19.40;72.40;;;;;;4941747;28;96435;-39
2021/05/25 07:58:24;;;;;;;3.10;2.22;;;19.30;72.50;;;;;;4946279;28;95312;-40
2021/05/25 08:00:55;;;;;;;4.18;2.35;;;19.30;72.70;;;;;;4940306;28;95869;-39
2021/05/25 08:03:25;;;;;;;2.58;2.00;;;19.20;72.90;;;;;;4942943;28;95420;-42
2021/05/25 08:06:00;;;;;;;2.80;2.08;;;19.20;73.00;;;;;;4943809;28;95626;-40
2021/05/25 08:08:32;;;;;;;6.38;2.45;;;19.20;73.20;;;;;;4947499;28;95248;-40
2021/05/25 08:11:04;;;;;;;3.25;2.53;;;19.10;73.30;;;;;;4947221;28;95779;-47
2021/05/25 08:13:35;;;;;;;3.20;2.80;;;19.10;73.50;;;;;;4945486;28;96778;-40
2021/05/25 08:16:07;;;;;;;3.00;2.33;;;19.00;73.80;;;;;;4941060;28;97800;-39
2021/05/25 08:18:48;;;;;;;2.67;2.40;;;19.00;74.00;;;;;;4941506;28;97299;-39
2021/05/25 08:21:19;;;;;;;3.13;2.60;;;19.00;74.30;;;;;;4946537;28;96115;-40
2021/05/25 08:23:50;;;;;;;3.22;2.50;;;18.90;74.40;;;;;;4943113;28;96783;-40
2021/05/25 08:26:25;;;;;;;2.53;2.30;;;18.90;74.10;;;;;;4944995;28;95655;-38
2021/05/25 08:28:56;;;;;;;2.72;2.25;;;18.90;74.20;;;;;;4942490;28;101863;-39
2021/05/25 08:31:27;;;;;;;2.78;2.47;;;18.80;74.20;;;;;;4944520;28;95882;-39
2021/05/25 08:33:58;;;;;;;3.67;2.35;;;18.80;74.40;;;;;;4943265;28;96126;-39
2021/05/25 08:36:31;;;;;;;2.45;2.25;;;18.80;74.60;;;;;;4944107;28;95611;-40
2021/05/25 08:39:02;;;;;;;2.22;2.03;;;18.80;74.80;;;;;;4943187;28;96071;-39
2021/05/25 08:41:34;;;;;;;4.65;3.13;;;18.70;74.80;;;;;;4948423;28;95919;-40
2021/05/25 08:44:06;;;;;;;2.65;2.13;;;18.70;74.90;;;;;;4945748;28;97888;-39
2021/05/25 08:46:44;;;;;;;2.47;1.98;;;18.70;74.90;;;;;;4936965;28;95866;-40
2021/05/25 08:49:14;;;;;;;2.85;2.53;;;18.60;75.10;;;;;;4928518;28;96040;-40
2021/05/25 08:51:45;;;;;;;2.53;1.95;;;18.60;75.00;;;;;;4930965;28;96071;-41
2021/05/25 08:54:14;;;;;;;3.33;2.72;;;18.60;75.20;;;;;;4924289;28;98761;-39
2021/05/25 08:56:45;;;;;;;3.05;2.50;;;18.60;75.50;;;;;;4929295;28;96367;-39
2021/05/25 08:59:16;;;;;;;6.07;2.35;;;18.60;75.40;;;;;;4926673;28;95794;-46
2021/05/25 09:01:51;;;;;;;2.40;2.17;;;18.50;75.40;;;;;;4935042;28;95404;-46
2021/05/25 09:04:22;;;;;;;3.53;2.35;;;18.50;75.40;;;;;;4944220;28;96901;-47
2021/05/25 09:06:54;;;;;;;2.65;2.00;;;18.50;75.40;;;;;;4949050;28;95787;-39
2021/05/25 09:09:26;;;;;;;;;;;18.50;75.60;;;;;;4946001;28;95789;-40
2021/05/25 09:12:01;;;;;;;2.72;2.53;;;18.50;75.70;;;;;;4949326;28;95799;-40
2021/05/25 09:14:34;;;;;;;2.60;2.38;;;18.40;75.80;;;;;;4943309;28;97036;-41
2021/05/25 09:17:24;;;;;;;2.30;2.08;;;18.40;75.80;;;;;;4944628;28;97614;-41
2021/05/25 09:19:59;;;;;;;2.30;2.10;;;18.40;75.90;;;;;;4945604;28;95608;-40
2021/05/25 09:22:35;;;;;;;4.40;2.00;;;18.30;75.90;;;;;;4950243;28;96151;-40
2021/05/25 09:25:17;;;;;;;2.92;2.10;;;18.30;76.00;;;;;;4946864;28;95679;-39
2021/05/25 09:30:49;;;;;;;2.20;2.00;;;18.30;76.00;;;;;;4935753;28;95877;-40
2021/05/25 09:33:21;;;;;;;4.43;2.17;;;18.30;76.10;;;;;;4948066;28;95772;-39
2021/05/25 09:35:53;;;;;;;4.18;2.05;;;18.30;76.00;;;;;;4936924;28;96047;-39
2021/05/25 09:38:28;;;;;;;2.13;1.70;;;18.30;76.00;;;;;;4947386;28;95795;-39
2021/05/25 09:41:02;;;;;;;2.53;2.05;;;18.20;76.00;;;;;;4941408;28;95879;-39
2021/05/25 09:43:34;;;;;;;4.55;1.90;;;18.20;76.10;;;;;;4946739;28;95671;-39
2021/05/25 09:46:10;;;;;;;2.72;1.80;;;18.20;76.00;;;;;;4952471;28;96780;-39
2021/05/25 09:48:45;;;;;;;1.60;1.50;;;18.20;76.10;;;;;;4945764;28;96008;-38
2021/05/25 09:51:24;;;;;;;1.83;1.70;;;18.20;76.10;;;;;;4941161;28;95886;-39
2021/05/25 09:54:02;;;;;;;3.00;1.73;;;18.20;76.20;;;;;;4946482;28;95747;-39
2021/05/25 09:56:35;;;;;;;2.72;1.67;;;18.20;76.10;;;;;;4944184;28;96133;-39
2021/05/25 09:59:07;;;;;;;2.08;1.80;;;18.20;76.10;;;;;;4949291;28;95850;-38
2021/05/25 10:01:38;;;;;;;3.60;1.95;;;18.10;76.10;;;;;;4942209;28;98605;-39
2021/05/25 10:04:16;;;;;;;1.50;1.40;;;18.10;76.90;;;;;;4951000;28;95944;-39
2021/05/25 10:06:48;;;;;;;1.42;1.30;;;18.00;76.30;;;;;;4940145;28;96189;-39
2021/05/25 10:09:24;;;;;;;1.60;1.50;;;18.00;76.40;;;;;;4948435;28;96219;-39
2021/05/25 10:11:59;;;;;;;1.73;1.63;;;17.90;76.40;;;;;;4936891;28;95958;-42
2021/05/25 10:14:31;;;;;;;1.80;1.50;;;17.90;76.60;;;;;;4944782;28;95978;-41
2021/05/25 10:17:03;;;;;;;2.13;1.70;;;18.00;76.70;;;;;;4926294;28;96772;-44
2021/05/25 10:19:35;;;;;;;1.65;1.20;;;18.10;76.60;;;;;;4924624;28;96159;-39
2021/05/25 10:22:05;;;;;;;1.35;1.25;;;18.20;76.40;;;;;;4921884;28;96556;-40
2021/05/25 10:24:35;;;;;;;1.52;1.42;;;18.30;76.30;;;;;;4926205;28;96217;-39
2021/05/25 10:27:05;;;;;;;1.30;1.20;;;18.30;76.30;;;;;;4921886;28;97269;-43
2021/05/25 10:29:36;;;;;;;1.52;1.42;;;18.40;76.30;;;;;;4924803;28;96192;-39
2021/05/25 10:32:07;;;;;;;1.92;1.65;;;18.40;76.20;;;;;;4932130;28;96714;-39
2021/05/25 10:34:44;;;;;;;;;;;18.40;75.00;;;;;;4943822;28;95788;-39
2021/05/25 10:37:15;;;;;;;1.65;1.52;;;18.30;75.10;;;;;;4945473;28;96710;-39
2021/05/25 10:39:51;;;;;;;4.97;1.70;;;18.30;75.70;;;;;;4944416;28;97941;-39
2021/05/25 10:42:24;;;;;;;2.03;1.50;;;18.20;75.80;;;;;;4941699;28;95928;-39
2021/05/25 10:44:59;;;;;;;2.28;2.05;;;18.20;75.90;;;;;;4945476;28;96160;-39
2021/05/25 10:47:34;;;;;;;2.03;1.60;;;18.10;76.00;;;;;;4937721;28;96054;-39
2021/05/25 10:50:25;;;;;;;1.67;1.50;;;18.10;76.10;;;;;;4943041;28;95946;-39
2021/05/25 10:52:55;;;;;;;1.63;1.38;;;18.00;76.50;;;;;;4939555;28;95717;-39
2021/05/25 10:55:41;;;;;;;2.30;1.60;;;18.00;76.30;;;;;;4944527;28;96053;-39
2021/05/25 10:58:35;;;;;;;1.52;1.23;;;18.00;76.30;;;;;;4940866;28;96122;-39
2021/05/25 11:01:09;;;;;;;2.97;1.55;;;17.90;76.40;;;;;;4935326;28;96364;-40
2021/05/25 11:03:46;;;;;;;1.52;1.40;;;17.90;76.40;;;;;;4939982;28;96090;-38
2021/05/25 11:06:30;;;;;;;2.03;1.38;;;17.90;76.50;;;;;;4943207;28;95958;-39
2021/05/25 11:09:28;;;;;;;2.22;1.55;;;17.90;76.70;;;;;;4934844;28;100645;-39
2021/05/25 11:12:09;;;;;;;1.67;1.40;;;17.80;76.60;;;;;;4940440;28;95488;-39
2021/05/25 11:15:16;;;;;;;2.75;1.63;;;17.80;76.70;;;;;;4939421;28;95925;-39
2021/05/25 11:17:50;;;;;;;2.20;1.27;;;17.80;76.70;;;;;;4942706;28;95924;-39
2021/05/25 11:20:38;;;;;;;3.05;1.50;;;17.80;76.80;;;;;;4953930;28;96298;-39
2021/05/25 11:23:39;;;;;;;1.60;1.50;;;17.70;76.80;;;;;;4942764;28;96019;-39
2021/05/25 11:26:09;;;;;;;2.80;1.50;;;17.70;76.90;;;;;;4940664;28;95895;-39
2021/05/25 11:29:18;;;;;;;1.88;1.27;;;17.70;76.90;;;;;;4939215;28;96192;-39
2021/05/25 11:31:51;;;;;;;1.45;1.35;;;17.70;77.00;;;;;;4929554;28;96602;-39
2021/05/25 11:34:24;;;;;;;2.08;1.70;;;17.70;77.00;;;;;;4939627;28;96481;-39
2021/05/25 11:36:58;;;;;;;2.58;1.20;;;17.70;77.00;;;;;;4943480;28;96339;-39
2021/05/25 11:39:30;;;;;;;1.60;1.30;;;17.60;76.90;;;;;;4938226;28;96348;-39
2021/05/25 11:42:09;;;;;;;1.30;1.20;;;17.60;76.90;;;;;;4942275;28;96861;-39
2021/05/25 11:44:45;;;;;;;1.85;1.40;;;17.60;76.90;;;;;;4940173;28;95817;-38
2021/05/25 11:47:17;;;;;;;1.67;1.40;;;17.60;77.00;;;;;;4940145;28;96828;-38
2021/05/25 11:49:48;;;;;;;1.85;1.30;;;17.60;77.10;;;;;;4939279;28;96401;-39
2021/05/25 11:52:29;;;;;;;2.78;1.88;;;17.60;77.10;;;;;;4944269;28;96256;-38
2021/05/25 11:55:10;;;;;;;1.58;1.48;;;17.50;77.80;;;;;;4939480;28;96607;-39
2021/05/25 11:57:43;;;;;;;1.42;1.23;;;17.50;77.30;;;;;;4942423;28;96249;-46
2021/05/25 12:00:21;;;;;;;1.35;1.25;;;17.50;77.20;;;;;;4936088;28;95459;-46
2021/05/25 12:02:56;;;;;;;1.20;1.05;;;17.50;77.30;;;;;;4941834;28;102284;-46
2021/05/25 12:05:29;;;;;;;2.05;1.27;;;17.50;77.30;;;;;;4939382;28;96014;-46
2021/05/25 12:08:10;;;;;;;2.60;1.30;;;17.40;77.20;;;;;;4944665;28;95371;-46
2021/05/25 12:10:44;;;;;;;2.92;1.42;;;17.40;77.30;;;;;;4939755;28;96357;-48
2021/05/25 12:13:20;;;;;;;1.58;1.48;;;17.40;77.50;;;;;;4940087;28;96109;-45
2021/05/25 12:15:53;;;;;;;3.13;1.67;;;17.40;77.40;;;;;;4938118;28;96385;-46
2021/05/25 12:18:25;;;;;;;1.40;1.20;;;17.30;77.30;;;;;;4948381;28;95918;-39
2021/05/25 12:20:57;;;;;;;1.33;1.17;;;17.30;77.30;;;;;;4946105;28;95898;-39
2021/05/25 12:23:29;;;;;;;1.45;1.33;;;17.30;77.50;;;;;;4948513;28;96124;-39
2021/05/25 12:26:20;;;;;;;1.33;1.20;;;17.30;77.50;;;;;;4944157;28;95892;-39
2021/05/25 12:28:52;;;;;;;;;;;17.30;77.30;;;;;;4948836;28;96295;-39
2021/05/25 12:31:29;;;;;;;0.95;0.85;;;17.30;77.40;;;;;;4940363;28;99132;-39
2021/05/25 12:34:01;;;;;;;2.08;1.65;;;17.30;77.40;;;;;;4945287;28;96114;-39
2021/05/25 12:36:35;;;;;;;1.40;1.30;;;17.30;77.20;;;;;;4943689;28;95816;-39
2021/05/25 12:39:06;;;;;;;1.50;1.38;;;17.30;77.30;;;;;;4951086;28;95752;-39
2021/05/25 12:41:54;;;;;;;1.58;1.17;;;17.20;77.40;;;;;;4944743;28;95789;-39
2021/05/25 12:44:33;;;;;;;2.67;1.30;;;17.20;77.30;;;;;;4949462;28;96123;-39
2021/05/25 12:47:08;;;;;;;1.83;1.30;;;17.10;77.40;;;;;;4939039;28;96090;-39
2021/05/25 12:49:41;;;;;;;1.52;1.33;;;17.10;77.50;;;;;;4947906;28;95706;-39
2021/05/25 12:52:23;;;;;;;1.52;1.17;;;17.10;77.60;;;;;;4947476;28;95675;-39
2021/05/25 12:55:03;;;;;;;1.25;1.15;;;17.10;77.60;;;;;;4950814;28;96410;-39
2021/05/25 12:57:50;;;;;;;2.20;1.50;;;17.00;77.60;;;;;;4947345;28;102248;-39
2021/05/25 13:00:38;;;;;;;1.58;1.48;;;17.00;77.70;;;;;;4946454;28;96109;-39
2021/05/25 13:03:31;;;;;;;1.80;1.40;;;17.00;77.70;;;;;;4947801;28;97756;-40
2021/05/25 13:06:13;;;;;;;2.42;1.45;;;17.00;77.70;;;;;;4948783;28;96221;-39
2021/05/25 13:08:50;;;;;;;1.30;1.20;;;16.90;77.80;;;;;;4946068;28;96395;-39
2021/05/25 13:11:25;;;;;;;2.88;1.40;;;16.80;77.80;;;;;;4949560;28;95421;-39
2021/05/25 13:13:57;;;;;;;2.30;1.42;;;16.80;77.90;;;;;;4947598;28;95268;-39
2021/05/25 13:16:31;;;;;;;2.10;1.30;;;16.80;77.90;;;;;;4946079;28;97128;-39
2021/05/25 13:19:04;;;;;;;1.40;1.20;;;16.80;78.00;;;;;;4944765;28;97298;-39
2021/05/25 13:21:43;;;;;;;1.38;1.20;;;16.70;78.10;;;;;;4950401;28;95328;-39
2021/05/25 13:24:14;;;;;;;2.35;1.60;;;16.70;78.10;;;;;;4941117;28;95734;-39
2021/05/25 13:26:44;;;;;;;;;;;16.70;78.10;;;;;;4952321;28;96111;-39
2021/05/25 13:29:17;;;;;;;2.53;1.38;;;16.70;78.10;;;;;;4948312;28;96947;-39
2021/05/25 13:31:50;;;;;;;2.17;1.45;;;16.60;78.20;;;;;;4945681;28;97419;-39
2021/05/25 13:34:25;;;;;;;1.60;1.23;;;16.60;78.20;;;;;;4944350;28;95798;-39